Time;durP1;ratioP1;P1;durP2;ratioP2;P2;SDS_P1;SDS_P2;PMS_P1;PMS_P2;Temp;Humidity;BMP_temperature;BMP_pressure;BME280_temperature;BME280_humidity;BME280_pressure;Samples;Min_cycle;Max_cycle;Signal;HPM_P1;HPM_P2
2021/12/08 00:00:30;;;;;;;;;2.00;1.00;;;;;6.46;100.00;99263.63;4869911;29;44693;-85
2021/12/08 00:02:57;;;;;;;;;3.75;2.00;;;;;6.40;100.00;99257.84;4867009;29;44679;-90
2021/12/08 00:05:23;;;;;;;;;2.60;0.40;;;;;6.35;100.00;99248.59;4868381;29;45454;-91
2021/12/08 00:07:49;;;;;;;;;1.00;1.00;;;;;6.37;100.00;99257.22;4853675;29;44706;-90
2021/12/08 00:13:04;;;;;;;;;3.00;1.50;;;;;6.33;100.00;99271.59;4873221;29;44717;-91
2021/12/08 00:15:51;;;;;;;;;1.20;1.00;;;;;6.31;100.00;99269.06;4856422;29;45086;-92
2021/12/08 00:18:24;;;;;;;;;3.00;2.00;;;;;6.35;100.00;99256.50;4875093;29;44707;-91
2021/12/08 00:20:52;;;;;;;;;3.40;0.60;;;;;6.32;100.00;99256.72;4857821;29;44830;-90
2021/12/08 00:23:18;;;;;;;;;2.25;0.00;;;;;6.31;100.00;99261.16;4877723;29;44739;-91
2021/12/08 00:25:44;;;;;;;;;2.75;1.00;;;;;6.29;100.00;99254.34;4879565;29;45557;-89
2021/12/08 00:28:11;;;;;;;;;1.00;1.00;;;;;6.27;100.00;99240.41;4872491;29;44720;-90
2021/12/08 00:30:40;;;;;;;;;1.00;1.00;;;;;6.20;100.00;99239.19;4868128;29;44722;-85
2021/12/08 00:33:06;;;;;;;;;2.75;1.75;;;;;6.28;100.00;99236.81;4863608;29;45145;-85
2021/12/08 00:35:32;;;;;;;;;2.00;1.00;;;;;6.26;100.00;99239.56;4863774;29;45284;-84
2021/12/08 00:37:58;;;;;;;;;3.00;0.00;;;;;6.26;100.00;99255.38;4864296;29;44754;-84
2021/12/08 00:40:25;;;;;;;;;0.25;0.25;;;;;6.21;100.00;99244.34;4848336;29;45345;-85
2021/12/08 00:42:50;;;;;;;;;0.50;0.50;;;;;6.21;100.00;99241.69;4871522;29;45456;-85
2021/12/08 00:45:17;;;;;;;;;4.00;0.50;;;;;6.21;100.00;99228.50;4883720;29;45644;-85
2021/12/08 00:47:45;;;;;;;;;4.00;0.00;;;;;6.17;100.00;99243.72;4883234;29;44777;-85
2021/12/08 00:50:12;;;;;;;;;2.00;1.00;;;;;6.20;100.00;99253.19;4883323;29;44786;-85
2021/12/08 00:52:38;;;;;;;;;3.25;1.00;;;;;6.18;100.00;99255.94;4882123;29;44897;-86
2021/12/08 00:55:06;;;;;;;;;1.00;1.00;;;;;6.16;100.00;99271.03;4866321;29;45033;-86
2021/12/08 00:57:33;;;;;;;;;0.60;0.20;;;;;6.13;100.00;99273.03;4884978;29;44685;-85
2021/12/08 01:00:00;;;;;;;;;1.40;0.00;;;;;6.14;100.00;99283.50;4884498;29;44717;-84
2021/12/08 01:02:26;;;;;;;;;0.00;0.00;;;;;6.13;100.00;99289.69;4886228;29;44893;-85
2021/12/08 01:04:53;;;;;;;;;0.00;0.00;;;;;6.12;100.00;99280.09;4885495;29;45511;-85
2021/12/08 01:07:19;;;;;;;;;0.00;0.00;;;;;6.08;100.00;99280.44;4885041;29;44942;-84
2021/12/08 01:09:46;;;;;;;;;0.25;0.25;;;;;6.03;100.00;99280.75;4883426;29;44876;-86
2021/12/08 01:12:12;;;;;;;;;1.75;0.75;;;;;5.93;100.00;99274.47;4883202;29;45402;-84
2021/12/08 01:14:37;;;;;;;;;1.00;0.00;;;;;5.95;100.00;99283.13;4877195;29;45134;-85
2021/12/08 01:17:05;;;;;;;;;0.00;0.00;;;;;5.92;100.00;99278.06;4848806;29;45318;-84
2021/12/08 01:19:32;;;;;;;;;1.00;0.00;;;;;5.92;100.00;99267.53;4867617;29;44742;-85
2021/12/08 01:21:57;;;;;;;;;2.00;0.00;;;;;5.94;100.00;99286.69;4867123;29;44878;-85
2021/12/08 01:24:23;;;;;;;;;2.00;0.00;;;;;5.91;100.00;99279.84;4867974;29;45463;-85
2021/12/08 01:26:49;;;;;;;;;0.00;0.00;;;;;5.89;100.00;99268.53;4874799;29;44690;-90
2021/12/08 01:29:15;;;;;;;;;1.00;0.00;;;;;5.89;100.00;99263.25;4876730;29;44686;-91
2021/12/08 01:31:42;;;;;;;;;0.00;0.00;;;;;5.89;100.00;99265.91;4872233;29;44850;-92
2021/12/08 01:34:09;;;;;;;;;1.00;0.00;;;;;5.84;100.00;99260.13;4872863;29;45402;-92
2021/12/08 01:36:36;;;;;;;;;0.00;0.00;;;;;5.82;100.00;99256.75;4853244;29;44626;-92
2021/12/08 01:39:06;;;;;;;;;0.00;0.00;;;;;5.77;100.00;99264.16;4852403;29;44690;-91
2021/12/08 01:41:32;;;;;;;;;1.50;0.00;;;;;5.74;100.00;99264.34;4868106;29;44844;-92
2021/12/08 01:47:19;;;;;;;;;0.00;0.00;;;;;5.68;100.00;99286.72;4869863;29;45281;-92
2021/12/08 01:49:44;;;;;;;;;1.50;0.00;;;;;5.69;100.00;99290.19;4851783;29;44733;-85
2021/12/08 01:52:10;;;;;;;;;1.75;0.00;;;;;5.68;100.00;99281.44;4866267;29;45309;-84
2021/12/08 01:54:36;;;;;;;;;3.00;0.00;;;;;5.59;100.00;99282.09;4849001;29;46866;-86
2021/12/08 01:57:01;;;;;;;;;2.00;0.00;;;;;5.63;100.00;99295.91;4865572;29;45374;-84
2021/12/08 01:59:27;;;;;;;;;0.25;0.00;;;;;5.62;100.00;99304.75;4865822;29;44716;-85
2021/12/08 02:01:52;;;;;;;;;0.50;0.50;;;;;5.60;100.00;99309.28;4870270;29;44810;-85
2021/12/08 02:04:17;;;;;;;;;0.00;0.00;;;;;5.56;100.00;99302.53;4890670;29;45176;-85
2021/12/08 02:06:45;;;;;;;;;1.25;1.25;;;;;5.57;100.00;99312.97;4891780;29;45348;-85
2021/12/08 02:09:14;;;;;;;;;0.00;0.00;;;;;5.54;100.00;99304.44;4893086;29;44738;-85
2021/12/08 02:11:41;;;;;;;;;0.00;0.00;;;;;5.54;100.00;99318.44;4894374;29;44859;-84
2021/12/08 02:14:08;;;;;;;;;2.00;0.00;;;;;5.47;100.00;99314.56;4896826;29;45110;-85
2021/12/08 02:16:33;;;;;;;;;2.00;0.00;;;;;5.50;100.00;99330.13;4884311;29;45206;-86
2021/12/08 02:19:00;;;;;;;;;0.00;0.00;;;;;5.47;100.00;99337.44;4884050;29;45225;-86
2021/12/08 02:21:35;;;;;;;;;3.25;1.50;;;;;5.46;100.00;99351.50;4884487;29;45375;-85
2021/12/08 02:24:04;;;;;;;;;1.80;1.00;;;;;5.39;100.00;99353.72;4884386;29;45676;-85
2021/12/08 02:26:30;;;;;;;;;1.40;1.40;;;;;5.37;100.00;99358.28;4884959;29;44826;-85
2021/12/08 02:28:57;;;;;;;;;2.40;0.80;;;;;5.38;100.00;99370.50;4868289;29;44789;-85
2021/12/08 02:31:37;;;;;;;;;0.25;0.25;;;;;5.37;100.00;99367.00;4885606;29;44970;-85
2021/12/08 02:50:11;;;;;;;;;1.20;0.00;;;;;5.29;100.00;99361.41;4883879;29;44757;-85
2021/12/08 02:52:38;;;;;;;;;1.00;1.00;;;;;5.29;100.00;99363.19;4883605;29;45410;-85
2021/12/08 02:55:07;;;;;;;;;3.00;1.00;;;;;5.33;100.00;99367.31;4883487;29;45381;-85
2021/12/08 02:57:32;;;;;;;;;1.00;0.00;;;;;5.32;100.00;99360.38;4883390;29;45222;-85
2021/12/08 02:59:58;;;;;;;;;1.00;0.00;;;;;5.30;100.00;99371.00;4883265;29;45294;-84
2021/12/08 03:02:23;;;;;;;;;2.75;1.00;;;;;5.25;100.00;99359.94;4883254;29;44804;-85
2021/12/08 03:04:49;;;;;;;;;0.75;0.50;;;;;5.27;100.00;99367.72;4883021;29;45589;-85
2021/12/08 03:07:15;;;;;;;;;0.00;0.00;;;;;5.27;100.00;99358.06;4883067;29;44818;-85
2021/12/08 03:09:41;;;;;;;;;2.25;0.50;;;;;5.24;100.00;99354.78;4883319;29;44638;-84
2021/12/08 03:12:07;;;;;;;;;2.50;1.00;;;;;5.22;100.00;99349.63;4865892;29;45247;-85
2021/12/08 03:14:32;;;;;;;;;3.00;1.00;;;;;5.20;100.00;99354.13;4882954;29;45404;-85
2021/12/08 03:17:02;;;;;;;;;1.00;0.00;;;;;5.20;100.00;99346.22;4865669;29;44815;-86
2021/12/08 03:19:29;;;;;;;;;2.00;0.00;;;;;5.19;100.00;99341.91;4883058;29;44824;-84
2021/12/08 03:21:55;;;;;;;;;0.00;0.00;;;;;5.19;100.00;99343.72;4884371;29;44825;-85
2021/12/08 03:24:28;;;;;;;;;4.00;1.50;;;;;5.17;100.00;99328.00;4892195;29;45415;-84
2021/12/08 03:29:37;;;;;;;;;2.00;0.00;;;;;5.14;100.00;99334.31;4893590;29;44650;-92
2021/12/08 03:32:08;;;;;;;;;2.75;0.25;;;;;5.12;100.00;99319.56;4894022;29;44679;-91
2021/12/08 03:34:51;;;;;;;;;2.00;0.25;;;;;5.12;100.00;99309.03;4873854;29;45505;-90
2021/12/08 03:37:24;;;;;;;;;2.20;1.00;;;;;5.09;100.00;99306.63;4876170;29;44772;-92
2021/12/08 03:39:50;;;;;;;;;2.25;1.00;;;;;5.13;100.00;99308.13;4893495;29;45197;-90
2021/12/08 03:42:22;;;;;;;;;1.00;1.00;;;;;5.10;100.00;99318.84;4880049;29;44998;-91
2021/12/08 03:45:34;;;;;;;;;1.00;0.00;;;;;5.10;100.00;99324.09;4894938;29;45535;-92
2021/12/08 03:48:06;;;;;;;;;1.20;0.20;;;;;5.08;100.00;99310.22;4887001;29;45430;-84
2021/12/08 03:50:35;;;;;;;;;2.75;0.00;;;;;5.02;100.00;99307.97;4884343;29;45548;-84
2021/12/08 03:53:00;;;;;;;;;0.00;0.00;;;;;4.97;100.00;99310.06;4866007;29;45265;-84
2021/12/08 03:55:26;;;;;;;;;1.00;1.00;;;;;4.95;100.00;99309.34;4882878;29;45043;-84
2021/12/08 03:57:52;;;;;;;;;1.00;1.00;;;;;4.94;100.00;99313.78;4882631;29;44711;-84
2021/12/08 04:00:23;;;;;;;;;0.25;0.25;;;;;4.89;100.00;99308.81;4882379;29;45316;-85
2021/12/08 04:02:48;;;;;;;;;2.75;1.00;;;;;4.86;100.00;99318.69;4884502;29;45490;-85
2021/12/08 04:05:21;;;;;;;;;3.25;0.50;;;;;4.83;100.00;99330.25;4884920;29;45205;-85
2021/12/08 04:07:48;;;;;;;;;1.60;0.80;;;;;4.82;100.00;99325.09;4885126;29;44757;-84
2021/12/08 04:10:19;;;;;;;;;2.00;0.00;;;;;4.81;100.00;99329.50;4884858;29;45369;-85
2021/12/08 04:12:51;;;;;;;;;6.75;1.00;;;;;4.73;100.00;99321.28;4886258;29;44793;-85
2021/12/08 04:15:21;;;;;;;;;0.50;0.00;;;;;4.75;100.00;99316.78;4897770;29;45186;-91
2021/12/08 04:17:49;;;;;;;;;0.00;0.00;;;;;4.73;100.00;99321.28;4887887;29;44656;-90
2021/12/08 04:20:22;;;;;;;;;4.00;0.00;;;;;4.74;100.00;99322.13;4898203;29;45256;-92
2021/12/08 04:22:51;;;;;;;;;3.00;1.50;;;;;4.73;100.00;99321.28;4892911;29;44961;-90
2021/12/08 04:25:21;;;;;;;;;3.00;1.00;;;;;4.68;100.00;99323.38;4894688;29;45168;-92
2021/12/08 04:27:51;;;;;;;;;2.00;0.80;;;;;4.62;100.00;99326.41;4874271;29;44803;-92
2021/12/08 04:30:32;;;;;;;;;2.00;0.00;;;;;4.60;100.00;99328.31;4872517;29;44827;-84
2021/12/08 04:32:58;;;;;;;;;0.50;0.50;;;;;4.55;100.00;99328.59;4871121;29;45427;-85
2021/12/08 04:35:24;;;;;;;;;1.00;0.00;;;;;4.55;100.00;99327.75;4885882;29;45205;-84
2021/12/08 04:37:54;;;;;;;;;2.25;1.00;;;;;4.54;100.00;99326.88;4883792;29;45264;-84
2021/12/08 04:46:09;;;;;;;;;0.25;0.25;;;;;4.55;100.00;99327.75;4882914;29;45006;-84
2021/12/08 05:09:42;;;;;;;;;2.00;0.00;;;;;4.41;100.00;99375.13;4884852;29;45527;-86
2021/12/08 05:12:15;;;;;;;;;2.75;1.00;;;;;4.46;100.00;99388.81;4885473;29;44715;-85
2021/12/08 05:14:46;;;;;;;;;4.00;1.25;;;;;4.44;100.00;99364.41;4883348;29;44937;-85
2021/12/08 05:17:24;;;;;;;;;8.50;3.00;;;;;4.42;100.00;99385.53;4884170;29;45420;-84
2021/12/08 05:19:55;;;;;;;;;6.00;1.60;;;;;4.44;100.00;99374.91;4882677;29;45581;-85
2021/12/08 05:22:29;;;;;;;;;4.00;2.00;;;;;4.39;100.00;99373.41;4866452;29;44932;-85
2021/12/08 05:24:57;;;;;;;;;2.25;1.00;;;;;4.38;100.00;99387.50;4891459;29;44808;-84
2021/12/08 05:27:31;;;;;;;;;4.75;1.00;;;;;4.35;100.00;99379.84;4882634;29;45729;-85
2021/12/08 05:30:06;;;;;;;;;1.00;1.00;;;;;4.31;100.00;99383.59;4883257;29;45354;-85
2021/12/08 05:32:32;;;;;;;;;5.00;1.00;;;;;4.34;100.00;99393.06;4867458;29;44827;-85
2021/12/08 05:34:58;;;;;;;;;2.25;1.00;;;;;4.31;100.00;99395.91;4882911;29;44896;-85
2021/12/08 05:37:27;;;;;;;;;3.50;1.00;;;;;4.24;100.00;99389.31;4889089;29;45225;-90
2021/12/08 05:39:54;;;;;;;;;3.00;1.60;;;;;4.21;100.00;99393.00;4872398;29;44613;-91
2021/12/08 05:42:33;;;;;;;;;3.00;1.00;;;;;4.23;100.00;99409.50;4871326;29;44652;-91
2021/12/08 05:44:58;;;;;;;;;3.50;1.00;;;;;4.17;100.00;99406.44;4872758;29;44862;-92
2021/12/08 05:47:27;;;;;;;;;4.25;2.00;;;;;4.09;100.00;99402.47;4873637;29;46912;-91
2021/12/08 05:49:54;;;;;;;;;1.50;1.00;;;;;4.12;100.00;99406.72;4871877;29;44626;-91
2021/12/08 05:52:20;;;;;;;;;1.00;1.00;;;;;4.11;100.00;99405.03;4872746;29;44636;-91
2021/12/08 05:54:47;;;;;;;;;1.00;1.00;;;;;4.15;100.00;99401.25;4871161;29;44929;-91
2021/12/08 05:57:19;;;;;;;;;3.00;1.75;;;;;4.11;100.00;99402.41;4869421;29;45509;-92
2021/12/08 05:59:49;;;;;;;;;2.00;0.00;;;;;4.05;100.00;99398.34;4888013;29;44701;-90
2021/12/08 06:02:20;;;;;;;;;3.00;1.25;;;;;4.06;100.00;99402.69;4889259;29;44751;-91
2021/12/08 06:08:07;;;;;;;;;4.50;1.75;;;;;4.06;100.00;99386.03;4891539;29;45177;-92
2021/12/08 06:10:37;;;;;;;;;1.75;1.75;;;;;4.06;100.00;99391.28;4889682;29;44638;-91
2021/12/08 06:13:05;;;;;;;;;3.00;1.00;;;;;4.07;100.00;99391.22;4873981;29;44791;-91
2021/12/08 06:15:30;;;;;;;;;2.50;1.50;;;;;4.02;100.00;99377.53;4877241;29;44808;-91
2021/12/08 06:17:56;;;;;;;;;3.00;1.00;;;;;4.05;100.00;99394.88;4877796;29;45136;-90
2021/12/08 06:20:23;;;;;;;;;3.25;1.00;;;;;4.03;100.00;99394.13;4873320;29;45368;-85
2021/12/08 06:22:51;;;;;;;;;0.25;0.25;;;;;4.01;100.00;99388.97;4890621;29;44753;-85
2021/12/08 06:25:17;;;;;;;;;5.00;2.00;;;;;4.01;100.00;99383.72;4890041;29;44769;-85
2021/12/08 06:27:43;;;;;;;;;1.75;0.25;;;;;3.98;100.00;99375.19;4892242;29;45533;-91
2021/12/08 06:30:14;;;;;;;;;1.75;1.75;;;;;3.96;100.00;99391.00;4875485;29;44812;-91
2021/12/08 06:32:39;;;;;;;;;4.00;4.00;;;;;3.88;100.00;99393.28;4875987;29;44636;-91
2021/12/08 06:35:08;;;;;;;;;3.75;1.00;;;;;3.98;100.00;99414.59;4895717;29;44990;-90
2021/12/08 06:37:41;;;;;;;;;7.00;2.00;;;;;3.90;100.00;99422.94;4898502;29;45358;-90
2021/12/08 06:40:32;;;;;;;;;3.25;2.00;;;;;3.93;100.00;99428.00;4879899;29;44644;-91
2021/12/08 06:43:01;;;;;;;;;1.50;0.25;;;;;3.94;100.00;99429.69;4871263;29;44886;-91
2021/12/08 06:45:33;;;;;;;;;3.25;1.75;;;;;3.89;100.00;99413.38;4876485;29;44965;-90
2021/12/08 06:48:02;;;;;;;;;2.00;2.00;;;;;3.91;100.00;99427.22;4874693;29;45541;-91
2021/12/08 06:50:47;;;;;;;;;3.00;2.00;;;;;3.86;100.00;99409.13;4887791;29;44699;-90
2021/12/08 06:53:13;;;;;;;;;2.00;1.00;;;;;3.94;100.00;99421.81;4858591;29;44800;-90
2021/12/08 06:55:43;;;;;;;;;5.00;2.00;;;;;3.95;100.00;99423.50;4871015;29;44932;-90
2021/12/08 06:58:14;;;;;;;;;3.00;1.25;;;;;3.89;100.00;99413.38;4891223;29;45287;-89
2021/12/08 07:00:55;;;;;;;;;2.50;1.25;;;;;3.94;100.00;99420.97;4893804;29;44766;-88
2021/12/08 07:06:29;;;;;;;;;1.00;1.00;;;;;3.89;100.00;99417.78;4891942;29;44700;-88
2021/12/08 07:08:57;;;;;;;;;4.00;1.25;;;;;3.83;100.00;99413.75;4873892;29;45048;-89
2021/12/08 07:11:24;;;;;;;;;2.00;2.00;;;;;3.90;100.00;99419.47;4873571;29;44605;-90
2021/12/08 07:13:52;;;;;;;;;2.50;1.25;;;;;3.90;100.00;99406.31;4890934;29;44606;-90
2021/12/08 07:16:23;;;;;;;;;0.50;0.50;;;;;3.82;100.00;99385.75;4873485;29;44859;-92
2021/12/08 07:19:01;;;;;;;;;3.00;1.25;;;;;3.91;100.00;99400.97;4859222;29;45442;-91
2021/12/08 07:21:33;;;;;;;;;2.75;1.75;;;;;3.90;100.00;99398.44;4891878;29;44798;-91
2021/12/08 07:24:04;;;;;;;;;3.00;3.00;;;;;3.92;100.00;99423.69;4890054;29;44621;-89
2021/12/08 07:26:32;;;;;;;;;0.25;0.00;;;;;3.89;100.00;99429.13;4871734;29;44801;-90
2021/12/08 07:29:00;;;;;;;;;3.00;1.25;;;;;3.93;100.00;99429.78;4889189;29;45300;-91
2021/12/08 07:31:33;;;;;;;;;1.25;1.25;;;;;3.96;100.00;99426.97;4890562;29;44636;-90
2021/12/08 07:34:05;;;;;;;;;8.50;3.50;;;;;3.95;100.00;99433.16;4890467;29;44693;-89
2021/12/08 07:36:37;;;;;;;;;7.25;2.75;;;;;4.01;100.00;99453.78;4890358;29;44811;-90
2021/12/08 07:39:07;;;;;;;;;3.25;1.00;;;;;3.95;100.00;99444.50;4893372;29;45283;-89
2021/12/08 07:41:39;;;;;;;;;4.00;3.00;;;;;3.98;100.00;99439.06;4877291;29;44637;-90
2021/12/08 07:47:50;;;;;;;;;5.00;2.00;;;;;4.07;100.00;99459.53;4892068;29;44605;-88
2021/12/08 07:50:25;;;;;;;;;8.00;2.25;;;;;4.02;100.00;99455.50;4887898;29;45391;-90
2021/12/08 07:52:53;;;;;;;;;9.75;4.00;;;;;4.06;100.00;99459.63;4896317;29;44779;-91
2021/12/08 07:55:33;;;;;;;;;0.75;0.75;;;;;4.07;100.00;99458.69;4882170;29;44658;-90
2021/12/08 07:58:01;;;;;;;;;3.00;2.50;;;;;4.15;100.00;99466.09;4880016;29;44848;-89
2021/12/08 08:00:49;;;;;;;;;2.00;2.00;;;;;4.21;100.00;99445.56;4879505;29;45296;-90
2021/12/08 08:03:18;;;;;;;;;6.50;3.00;;;;;4.34;100.00;99451.72;4861935;29;44715;-91
2021/12/08 08:05:49;;;;;;;;;4.25;1.75;;;;;4.28;100.00;99443.38;4884461;29;44806;-90
2021/12/08 08:08:17;;;;;;;;;5.00;3.25;;;;;4.41;100.00;99460.09;4884427;29;44840;-90
2021/12/08 08:10:56;;;;;;;;;2.25;1.50;;;;;4.45;100.00;99450.22;4885123;29;45206;-90
2021/12/08 08:13:25;;;;;;;;;1.75;1.75;;;;;4.44;100.00;99438.00;4872002;29;44638;-90
2021/12/08 08:16:04;;;;;;;;;5.00;1.75;;;;;4.53;100.00;99435.66;4869911;28;44673;-89
2021/12/08 08:18:33;;;;;;;;;2.00;2.00;;;;;4.47;100.00;99416.81;4854009;29;44898;-91
2021/12/08 08:21:05;;;;;;;;;7.25;2.50;;;;;4.55;100.00;99425.91;4866146;29;45626;-89
2021/12/08 08:23:32;;;;;;;;;6.75;2.50;;;;;4.61;100.00;99441.28;4879712;29;44781;-89
2021/12/08 08:26:00;;;;;;;;;6.50;2.75;;;;;4.57;100.00;99436.31;4867148;29;44624;-89
2021/12/08 08:28:28;;;;;;;;;2.50;2.50;;;;;4.56;100.00;99439.88;4888608;28;44890;-90
2021/12/08 08:31:08;;;;;;;;;2.25;2.00;;;;;4.56;100.00;99424.09;4889367;28;45531;-90
2021/12/08 08:33:37;;;;;;;;;5.75;2.75;;;;;4.70;100.00;99458.28;4871323;28;44691;-90
2021/12/08 08:36:11;;;;;;;;;4.75;3.00;;;;;4.61;100.00;99429.91;4885232;28;44773;-90
2021/12/08 08:38:52;;;;;;;;;2.25;1.25;;;;;4.62;100.00;99450.00;4888117;28;44850;-91
2021/12/08 08:41:27;;;;;;;;;14.25;2.00;;;;;4.76;100.00;99464.94;4891680;29;45271;-89
2021/12/08 08:43:54;;;;;;;;;8.00;2.00;;;;;4.77;100.00;99466.63;4871462;29;44660;-89
2021/12/08 08:46:36;;;;;;;;;2.25;1.50;;;;;4.85;100.00;99457.28;4880229;29;44733;-90
2021/12/08 08:49:09;;;;;;;;;3.75;2.00;;;;;4.80;100.00;99458.53;4878084;29;44862;-91
2021/12/08 08:51:43;;;;;;;;;2.50;1.00;;;;;4.93;100.00;99459.41;4873551;29;45156;-90
2021/12/08 08:54:22;;;;;;;;;1.50;1.00;;;;;4.88;100.00;99443.06;4892132;29;44754;-91
2021/12/08 08:57:03;;;;;;;;;0.00;0.00;;;;;5.01;100.00;99445.78;4863863;29;44618;-92
2021/12/08 08:59:33;;;;;;;;;1.50;1.50;;;;;4.97;100.00;99444.28;4893150;29;44778;-90
2021/12/08 09:02:03;;;;;;;;;4.25;2.00;;;;;5.04;100.00;99453.47;4890993;29;45626;-90
2021/12/08 09:04:57;;;;;;;;;3.00;3.00;;;;;4.97;100.00;99450.38;4895806;29;44757;-92
2021/12/08 09:07:32;;;;;;;;;2.50;2.00;;;;;5.11;100.00;99462.66;4883329;29;44842;-90
2021/12/08 09:10:23;;;;;;;;;6.00;3.00;;;;;5.06;100.00;99447.16;4901767;29;44769;-92
2021/12/08 09:12:59;;;;;;;;;3.75;1.25;;;;;5.13;100.00;99451.09;4885751;29;45510;-92
2021/12/08 09:15:50;;;;;;;;;3.00;3.00;;;;;5.29;100.00;99473.78;4886788;29;44564;-91
2021/12/08 09:18:46;;;;;;;;;2.00;2.00;;;;;5.31;100.00;99458.72;4886636;29;44896;-91
2021/12/08 09:21:22;;;;;;;;;3.75;2.00;;;;;5.33;100.00;99460.31;4900232;29;44816;-91
2021/12/08 09:23:57;;;;;;;;;11.00;3.00;;;;;5.42;100.00;99493.13;4885426;29;45453;-91
2021/12/08 09:26:25;;;;;;;;;18.50;9.25;;;;;5.42;100.00;99482.59;4880919;29;44604;-89
2021/12/08 09:29:26;;;;;;;;;4.50;3.00;;;;;5.36;100.00;99491.69;4880795;29;44628;-90
2021/12/08 09:32:09;;;;;;;;;3.00;2.75;;;;;5.40;100.00;99500.25;4891467;28;44918;-90
2021/12/08 09:34:54;;;;;;;;;5.00;3.25;;;;;5.32;100.00;99486.75;4883255;29;45450;-91
2021/12/08 09:37:26;;;;;;;;;2.40;2.00;;;;;5.30;100.00;99484.22;5060974;23;44791;-92
2021/12/08 09:42:36;;;;;;;;;5.25;3.50;;;;;5.26;100.00;99487.97;4937012;28;44808;-92
2021/12/08 09:58:45;;;;;;;;;7.50;5.00;;;;;5.57;100.00;99493.88;4943555;28;44986;-92
2021/12/08 10:05:06;;;;;;;;;8.00;6.50;;;;;5.68;100.00;99471.13;4943614;28;44631;-91
2021/12/08 10:07:35;;;;;;;;;2.00;2.00;;;;;5.72;100.00;99484.13;4929439;28;44837;-92
2021/12/08 10:15:15;;;;;;;;;2.00;2.00;;;;;5.99;100.00;99478.78;5020377;23;44770;-89
2021/12/08 10:17:41;;;;;;;;;3.00;3.00;;;;;6.05;100.00;99462.56;4895008;29;44833;-91
2021/12/08 10:20:32;;;;;;;;;2.00;2.00;;;;;6.02;100.00;99454.88;4890837;29;45081;-89
2021/12/08 10:23:27;;;;;;;;;1.40;1.40;;;;;6.14;100.00;99462.78;4908527;29;44779;-91
2021/12/08 10:26:04;;;;;;;;;1.20;1.20;;;;;6.26;100.00;99453.16;4918181;29;44648;-89
2021/12/08 10:28:40;;;;;;;;;4.25;4.25;;;;;6.34;100.00;99447.38;4920462;29;44730;-90
2021/12/08 10:31:14;;;;;;;;;3.25;3.00;;;;;6.49;100.00;99464.75;4907201;29;44989;-89
2021/12/08 10:34:09;;;;;;;;;4.00;3.00;;;;;6.54;100.00;99483.72;4904222;29;44798;-89
2021/12/08 10:36:45;;;;;;;;;2.75;2.00;;;;;6.44;100.00;99472.16;4906479;29;44750;-90
2021/12/08 10:39:25;;;;;;;;;4.50;2.00;;;;;6.48;100.00;99481.53;4905588;29;44973;-89
2021/12/08 10:42:00;;;;;;;;;6.00;5.00;;;;;6.57;100.00;99480.84;4908980;29;45164;-88
2021/12/08 10:44:32;;;;;;;;;3.00;2.00;;;;;6.70;100.00;99475.56;4907312;29;45165;-88
2021/12/08 10:46:58;;;;;;;;;3.00;2.00;;;;;6.86;100.00;99484.06;4913619;29;44713;-87
2021/12/08 10:54:48;;;;;;;;;5.20;2.80;;;;;7.36;100.00;99469.00;4894453;29;44805;-87
2021/12/08 10:57:22;;;;;;;;;3.25;3.00;;;;;7.40;100.00;99475.75;4879800;29;45424;-87
2021/12/08 11:00:13;;;;;;;;;6.75;5.75;;;;;7.40;100.00;99470.44;4902228;29;44885;-87
2021/12/08 11:02:51;;;;;;;;;6.00;3.60;;;;;7.53;100.00;99475.66;4900847;29;45561;-88
2021/12/08 11:05:26;;;;;;;;;5.40;5.40;;;;;7.57;100.00;99481.56;4894094;29;44633;-88
2021/12/08 11:08:03;;;;;;;;;4.00;3.00;;;;;7.40;100.00;99486.31;4910188;29;45294;-88
2021/12/08 11:10:30;;;;;;;;;3.50;1.75;;;;;7.38;100.00;99460.94;4910762;29;44718;-88
2021/12/08 11:12:58;;;;;;;;;3.60;2.20;;;;;7.51;100.00;99480.22;4889073;29;45922;-88
2021/12/08 11:15:26;;;;;;;;;2.80;2.80;;;;;7.56;100.00;99456.94;4892503;29;44755;-87
2021/12/08 11:18:16;;;;;;;;;5.50;4.25;;;;;7.70;100.00;99469.13;4898456;29;44802;-89
2021/12/08 11:20:45;;;;;;;;;5.25;3.00;;;;;7.62;100.00;99467.03;4887851;29;45436;-89
2021/12/08 11:23:14;;;;;;;;;2.75;2.75;;;;;7.67;100.00;99467.53;4887139;29;45244;-87
2021/12/08 11:25:46;;;;;;;;;7.25;7.25;;;;;7.58;100.00;99465.56;4890462;29;44744;-87
2021/12/08 11:28:30;;;;;;;;;5.00;4.00;;;;;7.65;100.00;99461.53;4903331;29;44733;-88
2021/12/08 11:31:06;;;;;;;;;5.00;4.00;;;;;7.61;100.00;99464.50;4880853;29;44842;-86
2021/12/08 11:33:32;;;;;;;;;3.00;2.25;;;;;7.64;100.00;99469.56;4890286;29;45274;-87
2021/12/08 11:36:13;;;;;;;;;3.40;3.40;;;;;7.69;100.00;99456.88;4875798;29;44827;-88
2021/12/08 11:38:40;;;;;;;;;5.60;5.40;;;;;7.70;100.00;99455.91;4907266;29;45177;-87
2021/12/08 11:41:22;;;;;;;;;2.25;2.25;;;;;7.76;100.00;99462.50;4893767;29;44841;-88
2021/12/08 11:43:56;;;;;;;;;8.75;8.50;;;;;7.79;100.00;99465.78;4910735;29;45468;-87
2021/12/08 11:49:04;;;;;;;;;2.40;2.00;;;;;7.75;100.00;99474.91;4916371;23;45428;-89
2021/12/08 11:51:48;;;;;;;;;3.75;2.00;;;;;7.78;100.00;99474.66;4907550;29;44657;-91
2021/12/08 11:54:24;;;;;;;;;3.00;1.80;;;;;7.73;100.00;99476.78;4892666;29;46717;-89
2021/12/08 11:56:50;;;;;;;;;6.00;3.60;;;;;7.75;100.00;99477.53;4896983;29;44998;-91
2021/12/08 11:59:16;;;;;;;;;2.80;2.80;;;;;7.77;100.00;99478.25;4902364;29;44712;-91
2021/12/08 12:01:41;;;;;;;;;3.00;3.00;;;;;7.72;100.00;99473.31;4919446;29;44868;-90
2021/12/08 12:04:09;;;;;;;;;2.75;2.00;;;;;7.80;100.00;99485.97;4919735;29;45155;-91
2021/12/08 12:06:35;;;;;;;;;1.20;0.40;;;;;7.81;100.00;99481.50;4898713;29;44845;-90
2021/12/08 12:09:05;;;;;;;;;3.80;3.00;;;;;7.85;100.00;99481.16;4890705;29;44830;-91
2021/12/08 12:11:31;;;;;;;;;6.00;4.25;;;;;7.79;100.00;99489.56;4889274;29;44901;-90
2021/12/08 12:17:18;;;;;;;;;2.20;2.20;;;;;7.80;100.00;99482.47;4888497;29;44753;-91
2021/12/08 12:23:44;;;;;;;;;4.25;2.75;;;;;8.01;100.00;99490.56;4895758;29;44807;-90
2021/12/08 12:26:29;;;;;;;;;5.60;2.00;;;;;8.09;100.00;99488.19;4871041;29;45543;-91
2021/12/08 12:29:04;;;;;;;;;3.40;2.00;;;;;8.15;100.00;99490.34;4889405;29;44791;-91
2021/12/08 12:31:52;;;;;;;;;1.40;1.00;;;;;8.18;100.00;99495.44;4873675;29;44783;-90
2021/12/08 12:34:28;;;;;;;;;1.00;1.00;;;;;8.15;100.00;99509.72;4888635;29;44875;-91
2021/12/08 12:36:54;;;;;;;;;3.40;1.40;;;;;8.12;100.00;99509.97;4888438;29;45263;-91
2021/12/08 12:39:24;;;;;;;;;3.00;2.00;;;;;8.16;100.00;99526.44;4869499;29;44620;-91
2021/12/08 12:42:13;;;;;;;;;2.00;2.00;;;;;8.20;100.00;99525.22;4885535;29;44678;-90
2021/12/08 12:44:41;;;;;;;;;2.75;1.75;;;;;8.20;100.00;99531.38;4888708;29;44760;-91
2021/12/08 12:47:14;;;;;;;;;3.00;1.00;;;;;8.27;100.00;99538.81;4902444;28;45690;-90
2021/12/08 12:49:59;;;;;;;;;3.00;1.40;;;;;8.27;100.00;99539.69;4905292;28;44720;-89
2021/12/08 12:52:48;;;;;;;;;3.80;2.00;;;;;8.31;100.00;99535.00;4900038;28;44569;-90
2021/12/08 12:55:18;;;;;;;;;2.00;2.00;;;;;8.33;100.00;99528.63;4887935;29;44741;-90
2021/12/08 12:58:04;;;;;;;;;2.20;1.00;;;;;8.46;100.00;99542.66;4885990;29;45174;-89
2021/12/08 13:00:42;;;;;;;;;5.00;3.00;;;;;8.62;100.00;99544.94;4885514;29;44660;-90
2021/12/08 13:03:29;;;;;;;;;6.60;2.00;;;;;8.72;100.00;99522.06;4888387;29;44774;-90
2021/12/08 13:05:54;;;;;;;;;2.25;2.00;;;;;8.74;100.00;99528.06;4871297;29;44877;-89
2021/12/08 13:08:49;;;;;;;;;2.75;2.00;;;;;8.67;100.00;99526.88;4870194;29;46980;-91
2021/12/08 13:11:30;;;;;;;;;2.20;1.00;;;;;8.62;100.00;99529.03;4886736;29;45278;-90
2021/12/08 13:13:56;;;;;;;;;3.00;2.00;;;;;8.63;100.00;99527.25;4888952;29;44719;-90
2021/12/08 13:16:30;;;;;;;;;3.00;2.00;;;;;8.71;100.00;99527.50;4874114;29;44829;-90
2021/12/08 13:19:00;;;;;;;;;2.80;1.20;;;;;8.70;100.00;99517.84;4873548;29;45163;-90
2021/12/08 13:21:46;;;;;;;;;2.20;1.40;;;;;8.71;100.00;99516.91;4874840;29;44718;-89
2021/12/08 13:31:59;;;;;;;;;1.00;1.00;;;;;8.95;100.00;99528.19;4892024;29;45174;-89
2021/12/08 13:34:32;;;;;;;;;4.00;2.40;;;;;9.07;100.00;99520.22;4888800;29;45356;-89
2021/12/08 13:37:13;;;;;;;;;2.80;2.00;;;;;9.15;100.00;99523.09;4871338;29;44841;-89
2021/12/08 13:39:42;;;;;;;;;1.75;1.00;;;;;9.15;100.00;99529.25;4892233;29;44675;-90
2021/12/08 13:42:11;;;;;;;;;2.20;2.00;;;;;9.04;100.00;99534.53;4892391;29;45009;-90
2021/12/08 13:44:40;;;;;;;;;3.60;0.80;;;;;8.89;100.00;99536.59;4890455;29;45292;-90